Time;durP1;ratioP1;P1;durP2;ratioP2;P2;SDS_P1;SDS_P2;PMS_P1;PMS_P2;Temp;Humidity;BMP_temperature;BMP_pressure;BME280_temperature;BME280_humidity;BME280_pressure;Samples;Min_cycle;Max_cycle;Signal;HPM_P1;HPM_P2
2022/05/21 00:00:56;;;;;;;13.73;8.73;;;11.00;99.90;;;;;;5111020;28;20040;-64
2022/05/21 00:03:21;;;;;;;14.07;8.82;;;11.00;99.90;;;;;;5112605;27;20439;-63
2022/05/21 00:05:47;;;;;;;13.90;8.88;;;11.00;99.90;;;;;;5126030;27;20028;-64
2022/05/21 00:08:13;;;;;;;12.98;8.88;;;11.00;99.90;;;;;;5099075;28;20035;-64
2022/05/21 00:10:40;;;;;;;15.93;8.73;;;11.00;99.90;;;;;;5099892;28;20043;-64
2022/05/21 00:13:06;;;;;;;12.00;7.93;;;11.00;99.90;;;;;;5112831;28;20078;-63
2022/05/21 00:15:34;;;;;;;17.60;8.88;;;11.00;99.90;;;;;;5099423;28;20409;-63
2022/05/21 00:18:00;;;;;;;13.77;8.40;;;11.00;99.90;;;;;;5110941;27;20059;-63
2022/05/21 00:23:17;;;;;;;17.90;8.57;;;11.00;99.90;;;;;;5131021;28;20043;-63
2022/05/21 00:25:46;;;;;;;15.13;9.70;;;11.10;99.90;;;;;;5113072;28;20054;-63
2022/05/21 00:28:12;;;;;;;13.32;9.15;;;11.10;99.90;;;;;;5111965;28;20413;-63
2022/05/21 00:30:38;;;;;;;18.67;10.27;;;11.10;99.90;;;;;;5110491;28;20119;-63
2022/05/21 00:33:04;;;;;;;19.80;10.43;;;11.10;99.90;;;;;;5092430;28;20436;-63
2022/05/21 00:35:30;;;;;;;16.80;10.23;;;11.10;99.90;;;;;;5110511;28;20047;-63
2022/05/21 00:37:56;;;;;;;22.80;11.10;;;11.10;99.90;;;;;;5109730;28;20104;-64
2022/05/21 00:40:22;;;;;;;17.38;11.60;;;11.10;99.90;;;;;;5110462;28;20455;-63
2022/05/21 00:42:49;;;;;;;19.20;12.20;;;11.10;99.90;;;;;;5100569;28;20441;-64
2022/05/21 00:45:15;;;;;;;22.20;12.93;;;11.10;99.90;;;;;;5099588;28;20047;-63
2022/05/21 00:47:41;;;;;;;20.48;12.80;;;11.10;99.90;;;;;;5110585;28;20039;-63
2022/05/21 00:50:09;;;;;;;22.05;13.70;;;11.10;99.90;;;;;;5108522;28;20096;-64
2022/05/21 00:52:38;;;;;;;20.17;14.38;;;11.10;99.90;;;;;;5110405;28;20055;-64
2022/05/21 00:55:17;;;;;;;25.98;14.50;;;11.10;99.90;;;;;;5110429;28;20129;-63
2022/05/21 01:00:45;;;;;;;23.73;14.52;;;11.10;99.90;;;;;;5109882;28;20044;-64
2022/05/21 01:03:13;;;;;;;23.48;15.10;;;11.10;99.90;;;;;;5109235;28;20043;-64
2022/05/21 01:05:39;;;;;;;22.92;15.65;;;11.10;99.90;;;;;;5105796;28;20146;-64
2022/05/21 01:08:05;;;;;;;20.67;14.93;;;11.20;99.90;;;;;;5130703;28;20531;-64
2022/05/21 01:10:35;;;;;;;23.88;14.77;;;11.20;99.90;;;;;;5098002;28;20096;-63
2022/05/21 01:13:06;;;;;;;27.27;16.70;;;11.20;99.90;;;;;;5074822;28;20407;-63
2022/05/21 01:15:39;;;;;;;25.13;15.73;;;11.20;99.90;;;;;;5110239;28;20056;-63
2022/05/21 01:18:07;;;;;;;24.08;15.75;;;11.30;99.90;;;;;;5110737;28;20035;-64
2022/05/21 01:20:41;;;;;;;24.77;15.73;;;11.30;99.90;;;;;;5095324;28;20107;-63
2022/05/21 01:23:07;;;;;;;20.02;14.60;;;11.30;99.90;;;;;;5094593;28;20051;-64
2022/05/21 01:25:35;;;;;;;22.80;14.68;;;11.30;99.90;;;;;;5095643;28;20054;-63
2022/05/21 01:28:03;;;;;;;22.65;15.05;;;11.40;99.90;;;;;;5096043;28;20044;-63
2022/05/21 01:30:48;;;;;;;26.85;14.70;;;11.40;99.90;;;;;;5113875;28;20481;-63
2022/05/21 01:33:16;;;;;;;22.73;14.65;;;11.40;99.90;;;;;;5113760;27;20035;-63
2022/05/21 01:35:43;;;;;;;21.77;14.77;;;11.40;99.90;;;;;;5111801;27;20087;-64
2022/05/21 01:38:11;;;;;;;20.85;14.90;;;11.40;99.90;;;;;;5130886;27;20036;-63
2022/05/21 01:40:37;;;;;;;21.35;15.30;;;11.40;99.90;;;;;;5113148;27;20035;-63
2022/05/21 01:45:51;;;;;;;24.30;14.93;;;11.50;99.90;;;;;;5095197;28;20096;-63
2022/05/21 01:48:21;;;;;;;24.85;15.52;;;11.50;99.90;;;;;;5113374;28;20426;-63
2022/05/21 01:50:49;;;;;;;25.35;15.82;;;11.50;99.90;;;;;;5113689;28;20035;-63
2022/05/21 01:53:15;;;;;;;22.55;16.15;;;11.60;99.90;;;;;;5111711;28;20039;-64
2022/05/21 01:55:42;;;;;;;22.50;16.25;;;11.60;99.90;;;;;;5103140;27;20047;-63
2022/05/21 01:58:08;;;;;;;25.33;16.95;;;11.60;99.90;;;;;;5115788;27;20497;-63
2022/05/21 02:00:34;;;;;;;21.98;16.90;;;11.60;99.90;;;;;;5122656;27;20046;-63
2022/05/21 02:03:00;;;;;;;25.05;16.85;;;11.60;99.90;;;;;;5076937;28;20432;-63
2022/05/21 02:05:25;;;;;;;25.23;16.73;;;11.60;99.90;;;;;;5112645;28;20036;-63
2022/05/21 02:07:51;;;;;;;21.17;16.58;;;11.70;99.90;;;;;;5113319;28;20410;-63
2022/05/21 02:10:16;;;;;;;25.30;17.52;;;11.70;99.90;;;;;;5112430;28;20084;-64
2022/05/21 02:12:42;;;;;;;28.80;17.88;;;11.70;99.90;;;;;;5076802;28;20480;-63
2022/05/21 02:15:09;;;;;;;24.70;17.65;;;11.70;99.90;;;;;;5111578;28;20582;-63
2022/05/21 02:17:34;;;;;;;25.50;17.40;;;11.70;99.90;;;;;;5101028;27;20035;-63
2022/05/21 02:20:00;;;;;;;24.35;17.92;;;11.80;99.90;;;;;;5115129;27;20046;-64
2022/05/21 02:22:29;;;;;;;23.27;17.38;;;11.80;99.90;;;;;;5114749;27;20129;-63
2022/05/21 02:24:55;;;;;;;28.35;17.58;;;11.80;99.90;;;;;;5100622;28;20116;-63
2022/05/21 02:27:21;;;;;;;25.88;17.05;;;11.80;99.90;;;;;;5112093;28;20035;-63
2022/05/21 02:29:46;;;;;;;29.05;18.00;;;11.80;99.90;;;;;;5094008;28;20401;-62
2022/05/21 02:32:14;;;;;;;25.65;17.40;;;11.90;99.90;;;;;;5094464;28;20035;-63
2022/05/21 02:34:41;;;;;;;23.08;17.17;;;11.90;99.90;;;;;;5114036;27;20035;-63
2022/05/21 02:39:52;;;;;;;25.88;16.85;;;11.90;99.90;;;;;;5112676;28;20031;-64
2022/05/21 02:45:03;;;;;;;25.60;16.75;;;11.90;99.90;;;;;;5110131;28;20127;-63
2022/05/21 02:47:30;;;;;;;21.88;15.73;;;11.90;99.90;;;;;;5090671;28;20126;-63
2022/05/21 02:49:56;;;;;;;20.40;15.75;;;12.00;99.90;;;;;;5110890;28;20134;-63
2022/05/21 02:52:22;;;;;;;24.63;15.75;;;12.00;99.90;;;;;;5093996;28;20122;-63
2022/05/21 02:54:47;;;;;;;24.70;15.82;;;12.00;99.90;;;;;;5112344;28;20078;-63
2022/05/21 02:57:13;;;;;;;24.70;15.48;;;12.00;99.90;;;;;;5092262;28;20043;-63
2022/05/21 02:59:39;;;;;;;25.88;15.88;;;12.00;99.90;;;;;;5111833;28;20078;-63
2022/05/21 03:02:05;;;;;;;22.15;15.70;;;12.00;99.90;;;;;;5110775;28;20042;-63
2022/05/21 03:04:31;;;;;;;25.33;14.13;;;12.00;99.90;;;;;;5112315;28;20035;-64
2022/05/21 03:06:57;;;;;;;20.45;13.77;;;12.10;99.90;;;;;;5120066;27;20443;-64
2022/05/21 03:12:09;;;;;;;21.92;13.23;;;12.10;99.90;;;;;;5111949;28;20043;-64
2022/05/21 03:14:35;;;;;;;21.33;13.45;;;12.10;99.90;;;;;;5111826;28;20065;-63
2022/05/21 03:17:01;;;;;;;21.65;12.00;;;12.20;99.90;;;;;;5110423;28;20116;-63
2022/05/21 03:19:32;;;;;;;26.85;11.35;;;12.20;99.90;;;;;;5130502;27;20122;-63
2022/05/21 03:21:58;;;;;;;17.00;10.70;;;12.20;99.90;;;;;;5132452;27;21741;-64
2022/05/21 03:24:25;;;;;;;24.80;10.27;;;12.30;99.90;;;;;;5132069;27;20517;-64
2022/05/21 03:26:51;;;;;;;18.48;9.07;;;12.30;99.90;;;;;;5132289;27;20099;-63
2022/05/21 03:29:17;;;;;;;18.75;9.05;;;12.30;99.90;;;;;;5113480;27;20031;-63
2022/05/21 03:31:42;;;;;;;20.80;9.00;;;12.30;99.90;;;;;;5110231;28;20104;-64
2022/05/21 03:34:08;;;;;;;17.00;8.30;;;12.30;99.90;;;;;;5116197;27;20035;-64
2022/05/21 03:36:34;;;;;;;15.13;6.70;;;12.40;99.90;;;;;;5111439;28;20082;-63
2022/05/21 03:39:01;;;;;;;18.52;7.63;;;12.40;99.90;;;;;;5109869;28;20405;-64
2022/05/21 03:41:27;;;;;;;19.50;6.70;;;12.40;99.90;;;;;;5109948;27;20042;-64
2022/05/21 03:43:54;;;;;;;20.15;7.05;;;12.40;99.90;;;;;;5131718;27;20034;-64
2022/05/21 03:46:20;;;;;;;18.83;6.38;;;12.50;99.90;;;;;;5113464;27;20060;-63
2022/05/21 03:48:45;;;;;;;23.50;6.40;;;12.50;99.90;;;;;;5127674;27;20493;-63
2022/05/21 03:51:12;;;;;;;15.05;5.43;;;12.50;99.90;;;;;;5105779;28;20078;-64
2022/05/21 03:53:38;;;;;;;15.77;6.10;;;12.50;99.90;;;;;;5108629;28;20051;-64
2022/05/21 03:56:05;;;;;;;14.85;5.38;;;12.50;99.90;;;;;;5110964;28;20074;-63
2022/05/21 03:58:31;;;;;;;16.60;5.10;;;12.60;99.90;;;;;;5111135;28;20069;-63
2022/05/21 04:00:57;;;;;;;17.10;5.18;;;12.60;99.90;;;;;;5092110;28;20110;-63
2022/05/21 04:03:23;;;;;;;17.70;4.72;;;12.60;99.90;;;;;;5092790;28;20039;-63
2022/05/21 04:05:49;;;;;;;15.15;4.50;;;12.60;99.90;;;;;;5092790;28;20039;-64
2022/05/21 04:08:17;;;;;;;17.35;3.60;;;12.60;99.90;;;;;;5092163;28;20130;-64
2022/05/21 04:10:43;;;;;;;16.70;3.50;;;12.60;99.90;;;;;;5109445;28;20127;-63
2022/05/21 04:13:09;;;;;;;13.27;2.97;;;12.70;99.90;;;;;;5110270;28;20150;-63
2022/05/21 04:15:35;;;;;;;15.10;2.63;;;12.70;99.90;;;;;;5092351;28;20046;-64
2022/05/21 04:18:01;;;;;;;16.77;3.40;;;12.70;99.90;;;;;;5110729;28;20115;-64
2022/05/21 04:20:27;;;;;;;14.77;2.45;;;12.80;99.90;;;;;;5111063;28;20173;-64
2022/05/21 04:22:53;;;;;;;14.02;3.10;;;12.80;99.90;;;;;;5110189;28;20398;-64
2022/05/21 04:25:20;;;;;;;12.88;2.60;;;12.80;99.90;;;;;;5091181;28;20048;-63
2022/05/21 04:27:46;;;;;;;14.07;3.00;;;12.80;99.90;;;;;;5075670;28;20044;-64
2022/05/21 04:30:19;;;;;;;12.57;2.50;;;12.80;99.90;;;;;;5092509;28;20043;-64
2022/05/21 04:32:45;;;;;;;14.55;2.72;;;12.80;99.90;;;;;;5091626;28;20040;-63
2022/05/21 04:35:12;;;;;;;18.27;3.42;;;12.90;99.90;;;;;;5110447;28;20718;-63
2022/05/21 04:37:39;;;;;;;12.23;3.15;;;12.90;99.90;;;;;;5092318;28;20050;-64
2022/05/21 04:40:08;;;;;;;14.77;2.63;;;12.90;99.90;;;;;;5110469;28;20053;-64
2022/05/21 04:42:33;;;;;;;15.35;2.55;;;12.90;99.90;;;;;;5108322;28;20043;-64
2022/05/21 04:44:59;;;;;;;10.50;2.75;;;12.90;99.90;;;;;;5110010;28;20047;-64
2022/05/21 04:47:25;;;;;;;15.05;3.15;;;12.90;99.90;;;;;;5110346;28;20114;-64
2022/05/21 04:49:50;;;;;;;11.18;2.38;;;13.00;99.90;;;;;;5110335;28;20093;-64
2022/05/21 04:52:16;;;;;;;16.27;2.65;;;13.00;99.90;;;;;;5112369;28;20027;-64
2022/05/21 04:54:41;;;;;;;11.38;2.67;;;13.00;99.90;;;;;;5113010;28;20050;-64
2022/05/21 04:57:07;;;;;;;14.90;2.85;;;13.00;99.90;;;;;;5085350;28;20138;-63
2022/05/21 04:59:33;;;;;;;15.63;2.72;;;13.00;99.90;;;;;;5113032;28;20436;-64
2022/05/21 05:01:58;;;;;;;12.45;2.42;;;13.00;99.90;;;;;;5106054;28;20047;-64
2022/05/21 05:04:24;;;;;;;15.93;3.45;;;13.00;99.90;;;;;;5091738;28;20089;-64
2022/05/21 05:06:50;;;;;;;11.88;2.47;;;13.10;99.90;;;;;;5101508;28;20616;-64
2022/05/21 05:09:19;;;;;;;10.35;2.90;;;13.20;99.90;;;;;;5101386;28;20126;-62
2022/05/21 05:11:46;;;;;;;12.48;2.88;;;13.20;99.90;;;;;;5090662;28;20046;-64
2022/05/21 05:14:11;;;;;;;16.52;3.35;;;13.20;99.90;;;;;;5094896;28;20039;-64
2022/05/21 05:16:37;;;;;;;17.98;3.25;;;13.20;99.90;;;;;;5093526;28;20488;-64
2022/05/21 05:19:03;;;;;;;16.50;3.08;;;13.20;99.90;;;;;;5092692;28;20048;-65
2022/05/21 05:21:28;;;;;;;13.55;2.53;;;13.30;99.90;;;;;;5094790;28;20039;-64
2022/05/21 05:23:54;;;;;;;14.80;3.38;;;13.40;99.90;;;;;;5112695;28;20040;-64
2022/05/21 05:26:22;;;;;;;14.40;2.78;;;13.40;99.90;;;;;;5091149;28;20180;-64
2022/05/21 05:28:48;;;;;;;16.52;3.22;;;13.50;99.90;;;;;;5092969;28;20478;-64
2022/05/21 05:31:14;;;;;;;12.70;2.83;;;13.50;99.90;;;;;;5113813;28;20054;-64
2022/05/21 05:33:39;;;;;;;13.77;2.67;;;13.60;99.90;;;;;;5072807;28;21424;-64
2022/05/21 05:36:05;;;;;;;13.13;2.75;;;13.60;99.90;;;;;;5093875;28;20047;-64
2022/05/21 05:38:31;;;;;;;11.07;2.33;;;13.70;99.90;;;;;;5092386;28;20036;-64
2022/05/21 05:40:57;;;;;;;10.02;2.45;;;13.80;99.90;;;;;;5095247;28;20048;-65
2022/05/21 05:43:23;;;;;;;17.23;3.35;;;13.70;99.90;;;;;;5092098;28;20475;-64
2022/05/21 05:45:50;;;;;;;15.02;3.10;;;13.70;99.90;;;;;;5112274;28;20032;-64
2022/05/21 05:48:16;;;;;;;12.57;2.33;;;13.60;99.90;;;;;;5089093;28;20134;-65
2022/05/21 05:50:42;;;;;;;12.38;2.58;;;13.60;99.90;;;;;;5094848;28;20039;-64
2022/05/21 05:53:08;;;;;;;14.88;2.60;;;13.70;99.90;;;;;;5089952;28;20062;-64
2022/05/21 05:55:35;;;;;;;12.95;2.72;;;13.70;99.90;;;;;;5109517;28;20031;-64
2022/05/21 05:59:48;;;;;;;9.50;2.25;;;13.90;99.90;;;;;;5106892;27;20048;-64
2022/05/21 06:00:47;;;;;;;9.95;2.25;;;13.90;99.90;;;;;;5094486;28;20044;-64
2022/05/21 06:03:12;;;;;;;13.00;2.88;;;14.00;99.90;;;;;;5088617;28;20043;-65
2022/05/21 06:05:38;;;;;;;12.40;2.75;;;14.10;99.90;;;;;;5107240;28;20040;-64
2022/05/21 06:08:05;;;;;;;11.52;2.40;;;14.10;99.90;;;;;;5089649;28;20051;-64
2022/05/21 06:10:37;;;;;;;8.98;2.45;;;14.10;99.90;;;;;;5092596;28;20051;-64
2022/05/21 06:13:04;;;;;;;16.05;3.15;;;14.00;99.90;;;;;;5093697;28;20032;-63
2022/05/21 06:15:31;;;;;;;9.77;2.85;;;13.90;99.90;;;;;;5092345;28;20120;-64
2022/05/21 06:17:56;;;;;;;13.98;2.65;;;13.90;99.90;;;;;;5089155;28;20040;-64
2022/05/21 06:20:25;;;;;;;14.13;3.05;;;13.80;99.90;;;;;;5093362;28;20043;-64
2022/05/21 06:22:50;;;;;;;13.77;2.38;;;13.70;99.90;;;;;;5090720;28;20493;-64
2022/05/21 06:25:19;;;;;;;12.20;2.22;;;13.70;99.90;;;;;;5112587;28;20071;-64
2022/05/21 06:27:46;;;;;;;15.00;2.58;;;13.70;99.90;;;;;;5089451;28;20047;-64
2022/05/21 06:30:13;;;;;;;11.98;2.50;;;13.80;99.90;;;;;;5093939;28;20085;-65
2022/05/21 06:32:38;;;;;;;11.07;2.10;;;13.70;99.90;;;;;;5117952;27;20042;-63
2022/05/21 06:35:05;;;;;;;12.00;2.42;;;13.70;99.90;;;;;;5090511;28;20052;-64
2022/05/21 06:37:30;;;;;;;12.35;2.42;;;13.90;99.90;;;;;;5092912;28;20164;-64
2022/05/21 06:39:56;;;;;;;9.85;2.47;;;14.00;99.90;;;;;;5108589;28;20545;-63
2022/05/21 06:42:22;;;;;;;12.50;2.55;;;14.10;99.90;;;;;;5092868;28;20375;-64
2022/05/21 06:44:47;;;;;;;13.95;2.55;;;14.00;99.90;;;;;;5090500;28;21264;-64
2022/05/21 06:47:13;;;;;;;13.68;3.25;;;14.10;99.90;;;;;;5091770;28;20044;-65
2022/05/21 06:49:38;;;;;;;12.45;2.40;;;14.10;99.90;;;;;;5089368;28;20269;-65
2022/05/21 06:52:04;;;;;;;11.13;2.30;;;14.10;99.90;;;;;;5088234;28;20035;-64
2022/05/21 06:54:30;;;;;;;14.88;2.40;;;14.30;99.90;;;;;;5093598;28;20477;-64
2022/05/21 06:56:56;;;;;;;10.70;2.40;;;14.30;99.90;;;;;;5091854;28;20072;-64
2022/05/21 06:59:22;;;;;;;10.32;2.45;;;14.30;99.90;;;;;;5088577;28;20036;-64
2022/05/21 07:01:48;;;;;;;9.70;2.40;;;14.20;99.90;;;;;;5108995;27;20042;-64
2022/05/21 07:04:14;;;;;;;12.13;2.33;;;14.20;99.90;;;;;;5092667;28;20102;-64
2022/05/21 07:09:25;;;;;;;13.15;2.30;;;14.60;99.90;;;;;;5091972;28;20093;-64
2022/05/21 07:11:51;;;;;;;10.45;2.67;;;14.80;99.90;;;;;;5086863;28;20039;-65
2022/05/21 07:14:18;;;;;;;11.68;2.00;;;15.10;99.90;;;;;;5090748;28;20031;-65
2022/05/21 07:16:44;;;;;;;9.10;2.13;;;15.20;99.90;;;;;;5090909;28;21416;-65
2022/05/21 07:19:10;;;;;;;10.07;2.22;;;15.20;99.90;;;;;;5089624;28;20059;-64
2022/05/21 07:21:36;;;;;;;13.38;2.67;;;15.30;99.90;;;;;;5091735;28;20047;-64
2022/05/21 07:24:02;;;;;;;11.48;2.05;;;15.40;99.90;;;;;;5110040;28;20139;-65
2022/05/21 07:26:28;;;;;;;9.27;2.13;;;15.40;99.90;;;;;;5091436;28;20081;-65
2022/05/21 07:28:56;;;;;;;14.32;2.67;;;15.20;99.90;;;;;;5091355;28;20363;-64
2022/05/21 07:31:22;;;;;;;8.98;2.17;;;15.00;99.90;;;;;;5105091;28;20447;-64
2022/05/21 07:33:48;;;;;;;9.23;2.22;;;15.00;99.90;;;;;;5082473;28;20058;-64
2022/05/21 07:36:14;;;;;;;11.60;2.28;;;15.00;99.90;;;;;;5084968;28;20126;-63
2022/05/21 07:38:39;;;;;;;14.88;2.92;;;15.00;99.90;;;;;;5080930;28;20733;-64
2022/05/21 07:41:06;;;;;;;12.07;2.20;;;15.00;99.90;;;;;;5092064;28;20039;-64
2022/05/21 07:43:31;;;;;;;10.48;2.08;;;15.00;99.90;;;;;;5089531;28;20049;-64
2022/05/21 07:45:58;;;;;;;9.93;2.47;;;15.20;99.90;;;;;;5090986;28;20417;-64
2022/05/21 07:48:25;;;;;;;10.38;2.10;;;15.40;99.90;;;;;;5108877;28;20040;-64
2022/05/21 07:50:59;;;;;;;8.88;1.83;;;15.50;99.90;;;;;;5091714;28;20424;-63
2022/05/21 07:53:28;;;;;;;7.53;2.22;;;15.40;99.90;;;;;;5109938;28;20047;-64
2022/05/21 07:55:55;;;;;;;11.90;1.90;;;15.30;99.90;;;;;;5090262;28;20051;-64
2022/05/21 07:58:24;;;;;;;10.95;1.88;;;15.10;99.90;;;;;;5108405;28;20032;-64
2022/05/21 08:00:51;;;;;;;10.85;2.08;;;15.20;99.90;;;;;;5110271;27;20079;-64
2022/05/21 08:03:17;;;;;;;6.72;1.85;;;15.30;99.90;;;;;;5108537;28;20035;-64
2022/05/21 08:05:44;;;;;;;6.45;1.80;;;15.30;99.90;;;;;;5087499;28;20039;-65
2022/05/21 08:08:10;;;;;;;11.07;2.28;;;15.10;99.90;;;;;;5090820;28;20482;-64
2022/05/21 08:10:38;;;;;;;10.57;1.90;;;15.00;99.90;;;;;;5090375;28;20038;-64
2022/05/21 08:13:05;;;;;;;8.73;1.85;;;14.90;99.90;;;;;;5092661;28;20637;-64
2022/05/21 08:15:30;;;;;;;12.02;2.00;;;14.80;99.90;;;;;;5087294;28;20043;-64
2022/05/21 08:17:56;;;;;;;14.02;2.22;;;14.60;99.90;;;;;;5092066;28;20043;-64
2022/05/21 08:20:22;;;;;;;11.05;2.47;;;14.70;99.90;;;;;;5107133;28;20039;-64
2022/05/21 08:28:16;;;;;;;7.10;1.70;;;15.50;99.90;;;;;;5090872;28;20083;-64
2022/05/21 08:30:44;;;;;;;9.27;1.70;;;15.30;99.90;;;;;;5086767;28;20508;-64
2022/05/21 08:33:11;;;;;;;7.88;1.63;;;15.50;99.90;;;;;;5092264;28;20048;-64
2022/05/21 08:35:40;;;;;;;12.02;2.13;;;15.80;99.90;;;;;;5106679;28;20383;-64
2022/05/21 08:38:08;;;;;;;9.70;1.60;;;16.20;99.90;;;;;;5108473;28;20134;-64
2022/05/21 08:40:55;;;;;;;9.40;2.15;;;16.70;99.90;;;;;;5102446;28;20070;-64
2022/05/21 08:43:30;;;;;;;11.55;1.75;;;16.80;99.90;;;;;;5089281;28;20039;-64
2022/05/21 08:45:59;;;;;;;7.53;1.67;;;16.70;99.90;;;;;;5106181;28;20428;-64
2022/05/21 08:48:26;;;;;;;6.10;1.92;;;16.90;99.90;;;;;;5108864;28;20047;-64
2022/05/21 08:50:54;;;;;;;13.52;2.13;;;17.10;99.90;;;;;;5088733;28;20054;-65
2022/05/21 08:53:24;;;;;;;9.85;2.15;;;16.90;99.90;;;;;;5089277;28;20042;-64
2022/05/21 08:55:54;;;;;;;9.77;2.20;;;16.50;99.90;;;;;;5088789;28;20039;-64
2022/05/21 08:58:34;;;;;;;11.27;2.20;;;16.50;99.90;;;;;;5110385;28;20077;-65
2022/05/21 09:01:00;;;;;;;6.97;1.90;;;16.40;99.90;;;;;;5089010;28;20047;-64
2022/05/21 09:03:26;;;;;;;11.88;2.10;;;16.20;99.90;;;;;;5106908;28;20402;-64
2022/05/21 09:06:07;;;;;;;7.13;1.80;;;16.00;99.90;;;;;;5088568;28;20051;-64
2022/05/21 09:08:47;;;;;;;10.20;1.77;;;16.20;99.90;;;;;;5109814;28;20043;-64
2022/05/21 09:11:25;;;;;;;7.22;1.88;;;16.40;99.90;;;;;;5090426;28;20050;-64
2022/05/21 09:14:22;;;;;;;8.88;1.90;;;16.90;99.90;;;;;;5090904;28;20047;-65
2022/05/21 09:16:55;;;;;;;8.10;2.13;;;17.20;99.90;;;;;;5089546;28;20043;-64
2022/05/21 09:19:48;;;;;;;10.48;1.75;;;17.40;99.90;;;;;;5090469;28;20032;-64
2022/05/21 09:22:17;;;;;;;7.80;1.70;;;17.30;99.90;;;;;;5102978;28;20055;-64
2022/05/21 09:24:51;;;;;;;8.55;2.08;;;17.10;99.90;;;;;;5091780;28;20061;-64
2022/05/21 09:27:42;;;;;;;8.85;2.03;;;17.20;99.90;;;;;;5102764;28;20048;-65
2022/05/21 09:30:20;;;;;;;9.32;2.00;;;17.50;99.90;;;;;;5075058;28;20036;-63
2022/05/21 09:32:51;;;;;;;8.57;2.08;;;17.30;99.90;;;;;;5088588;28;20065;-62
2022/05/21 09:35:23;;;;;;;8.48;1.98;;;17.00;99.90;;;;;;5091695;28;20497;-62
2022/05/21 09:37:49;;;;;;;14.07;2.00;;;16.80;99.90;;;;;;5085969;28;20038;-61
2022/05/21 09:40:36;;;;;;;7.03;1.48;;;16.70;99.90;;;;;;5085918;28;20056;-63
2022/05/21 09:46:31;;;;;;;5.43;1.55;;;17.20;99.90;;;;;;5099267;27;20075;-63
2022/05/21 09:49:15;;;;;;;7.88;1.75;;;17.00;99.90;;;;;;5112361;27;20545;-63
2022/05/21 09:51:41;;;;;;;6.45;1.92;;;17.10;99.90;;;;;;5099015;27;20071;-62
2022/05/21 09:54:26;;;;;;;7.68;1.40;;;17.20;99.90;;;;;;5100934;28;20069;-63
2022/05/21 09:56:53;;;;;;;8.73;1.90;;;17.30;99.90;;;;;;5120369;27;20039;-62
2022/05/21 09:59:33;;;;;;;10.20;1.50;;;17.40;99.90;;;;;;5127294;27;20046;-62
2022/05/21 10:02:15;;;;;;;6.85;1.60;;;17.30;99.90;;;;;;5102994;28;20545;-62
2022/05/21 10:04:54;;;;;;;6.63;1.23;;;17.10;99.90;;;;;;5114315;27;20481;-62
2022/05/21 10:13:13;;;;;;;9.43;1.83;;;16.70;99.90;;;;;;5109079;28;20043;-63
2022/05/21 10:15:48;;;;;;;9.93;1.90;;;16.50;99.90;;;;;;5110179;28;20409;-63
2022/05/21 10:18:36;;;;;;;5.93;1.20;;;16.60;99.90;;;;;;5091332;28;20043;-62
2022/05/21 10:21:15;;;;;;;7.90;1.63;;;16.60;99.90;;;;;;5094366;28;20077;-62
2022/05/21 10:23:48;;;;;;;6.10;1.55;;;16.60;99.90;;;;;;5094509;28;20059;-62
2022/05/21 10:26:53;;;;;;;5.00;1.15;;;16.40;99.90;;;;;;5111654;28;20051;-63
2022/05/21 10:29:50;;;;;;;7.32;1.40;;;16.10;99.90;;;;;;5093135;28;20103;-63
2022/05/21 10:32:37;;;;;;;5.13;1.25;;;16.20;99.90;;;;;;5112479;28;20435;-62
2022/05/21 10:35:33;;;;;;;5.50;1.30;;;16.70;99.90;;;;;;5093164;28;20044;-62
2022/05/21 10:38:20;;;;;;;6.63;1.73;;;17.20;99.90;;;;;;5094474;28;20048;-62
2022/05/21 10:40:54;;;;;;;8.43;1.45;;;17.90;99.90;;;;;;5110672;28;20047;-62
2022/05/21 10:43:22;;;;;;;4.03;1.00;;;18.20;99.90;;;;;;5109919;28;20054;-63
2022/05/21 10:46:30;;;;;;;7.18;1.55;;;18.20;99.90;;;;;;5092883;28;20047;-63
2022/05/21 10:49:13;;;;;;;8.60;1.90;;;17.80;99.90;;;;;;5094312;28;20054;-62
2022/05/21 10:51:58;;;;;;;6.03;1.45;;;17.70;99.90;;;;;;5093320;28;20130;-63
2022/05/21 10:54:37;;;;;;;5.90;1.23;;;17.90;99.90;;;;;;5092930;28;20482;-63
2022/05/21 10:57:34;;;;;;;7.68;1.95;;;17.80;99.90;;;;;;5093663;28;20439;-63
2022/05/21 11:00:05;;;;;;;6.72;1.52;;;18.00;99.90;;;;;;5110243;28;20047;-63
2022/05/21 11:02:52;;;;;;;7.88;1.20;;;17.70;99.90;;;;;;5093431;28;20040;-63
2022/05/21 11:05:30;;;;;;;5.32;1.10;;;17.80;99.90;;;;;;5095647;27;20048;-63
2022/05/21 11:07:59;;;;;;;7.18;1.50;;;17.70;99.90;;;;;;5111592;28;20027;-63
2022/05/21 11:10:38;;;;;;;6.80;1.63;;;17.60;99.90;;;;;;5093875;28;20383;-63
2022/05/21 11:13:12;;;;;;;6.78;1.35;;;17.60;99.90;;;;;;5111904;28;20039;-62
2022/05/21 11:15:46;;;;;;;8.48;1.67;;;17.50;99.90;;;;;;5089640;28;20043;-63
2022/05/21 11:18:21;;;;;;;5.95;1.40;;;17.40;99.90;;;;;;5109659;27;20035;-63
2022/05/21 11:21:12;;;;;;;5.45;1.17;;;17.50;99.90;;;;;;5107809;28;20059;-63
2022/05/21 11:23:56;;;;;;;4.22;1.30;;;17.50;99.90;;;;;;5090473;28;20055;-63
2022/05/21 11:26:40;;;;;;;7.45;1.65;;;17.60;99.90;;;;;;5106062;28;20050;-63
2022/05/21 11:29:27;;;;;;;9.07;1.50;;;17.60;99.90;;;;;;5092715;28;20040;-63
2022/05/21 11:37:48;;;;;;;6.90;1.50;;;17.10;99.90;;;;;;5092468;28;20130;-63
2022/05/21 11:40:49;;;;;;;6.60;1.33;;;17.00;99.90;;;;;;5110915;28;20038;-62
2022/05/21 11:43:16;;;;;;;7.00;1.80;;;17.00;99.90;;;;;;5106356;28;20119;-63
2022/05/21 11:46:01;;;;;;;9.75;2.22;;;17.10;99.90;;;;;;5074906;28;20036;-63
2022/05/21 11:48:29;;;;;;;8.77;1.83;;;17.00;99.90;;;;;;5092120;28;20043;-63
2022/05/21 11:51:22;;;;;;;5.38;1.17;;;16.80;99.90;;;;;;5092952;28;20054;-62
2022/05/21 11:53:48;;;;;;;7.93;1.73;;;16.90;99.90;;;;;;5110708;28;20460;-63
2022/05/21 11:56:14;;;;;;;6.35;1.58;;;16.70;99.90;;;;;;5099504;27;20122;-62
2022/05/21 11:59:08;;;;;;;9.77;2.08;;;16.70;99.90;;;;;;5095272;28;20040;-63
2022/05/21 12:01:38;;;;;;;6.78;1.40;;;16.70;99.90;;;;;;5091971;28;20028;-63
2022/05/21 12:04:06;;;;;;;6.03;1.50;;;16.80;99.90;;;;;;5091463;28;20397;-63
2022/05/21 12:06:40;;;;;;;7.63;1.45;;;16.80;99.90;;;;;;5110197;28;20046;-63
2022/05/21 12:09:22;;;;;;;6.18;1.42;;;16.90;99.90;;;;;;5091706;28;20590;-65
2022/05/21 12:11:48;;;;;;;9.52;1.50;;;17.00;99.90;;;;;;5110642;28;20040;-63
2022/05/21 12:14:27;;;;;;;6.72;1.38;;;17.00;99.90;;;;;;5089765;28;20397;-63
2022/05/21 12:16:58;;;;;;;7.60;1.80;;;17.10;99.90;;;;;;5106958;28;20398;-63
2022/05/21 12:19:43;;;;;;;6.75;1.15;;;17.30;99.90;;;;;;5110855;28;20036;-63
2022/05/21 12:22:10;;;;;;;8.75;1.40;;;17.40;99.90;;;;;;5092208;28;20143;-63
2022/05/21 12:24:41;;;;;;;6.00;1.42;;;17.40;99.90;;;;;;5106470;28;20566;-63
2022/05/21 12:27:45;;;;;;;9.30;1.95;;;17.40;99.90;;;;;;5088607;28;20078;-63
2022/05/21 12:30:23;;;;;;;5.28;1.58;;;17.60;99.90;;;;;;5091450;28;20035;-63
2022/05/21 12:32:50;;;;;;;5.65;1.50;;;17.60;99.90;;;;;;5110352;28;20032;-63
2022/05/21 12:35:23;;;;;;;5.25;1.20;;;17.60;99.90;;;;;;5090608;28;20044;-63
2022/05/21 12:37:55;;;;;;;5.75;1.40;;;17.50;99.90;;;;;;5092015;28;20050;-63
2022/05/21 12:40:42;;;;;;;6.60;1.80;;;17.40;99.90;;;;;;5108177;28;20039;-64
2022/05/21 12:43:13;;;;;;;6.13;1.30;;;17.40;99.90;;;;;;5110293;28;20036;-63
2022/05/21 12:45:48;;;;;;;7.43;1.40;;;17.40;99.90;;;;;;5089065;28;20032;-63
2022/05/21 12:48:19;;;;;;;4.65;1.52;;;17.30;99.90;;;;;;5090685;28;20053;-63
2022/05/21 12:51:00;;;;;;;7.95;1.95;;;17.10;99.90;;;;;;5092332;28;20044;-62
2022/05/21 12:53:49;;;;;;;6.13;1.67;;;17.00;99.90;;;;;;5089203;28;20048;-63
2022/05/21 12:56:19;;;;;;;5.97;1.27;;;17.00;99.90;;;;;;5107204;28;20398;-62
2022/05/21 12:58:46;;;;;;;6.68;1.30;;;16.90;99.90;;;;;;5091717;28;20032;-63
2022/05/21 13:01:23;;;;;;;6.30;1.52;;;16.80;99.90;;;;;;5092158;28;20097;-63
2022/05/21 13:03:49;;;;;;;13.95;2.90;;;16.80;99.90;;;;;;5091939;28;20122;-62
2022/05/21 13:06:22;;;;;;;4.80;1.33;;;16.80;99.90;;;;;;5105293;28;20115;-63
2022/05/21 13:08:50;;;;;;;6.97;1.70;;;16.80;99.90;;;;;;5088489;28;20048;-63
2022/05/21 13:11:21;;;;;;;8.18;1.42;;;16.90;99.90;;;;;;5110070;28;20520;-62
2022/05/21 13:13:59;;;;;;;5.90;1.50;;;16.80;99.90;;;;;;5092389;28;20122;-63
2022/05/21 13:16:25;;;;;;;5.38;1.27;;;16.90;99.90;;;;;;5110147;28;20134;-63
2022/05/21 13:19:19;;;;;;;7.03;1.67;;;17.00;99.90;;;;;;5094837;28;20486;-62
2022/05/21 13:22:12;;;;;;;5.20;1.40;;;17.20;99.90;;;;;;5096163;28;20032;-62
2022/05/21 13:25:06;;;;;;;6.47;1.45;;;17.50;99.90;;;;;;5113663;28;20064;-62
2022/05/21 13:27:54;;;;;;;4.35;1.00;;;17.60;99.90;;;;;;5095637;28;20081;-63
2022/05/21 13:30:32;;;;;;;4.90;0.90;;;17.70;99.90;;;;;;5092442;28;20100;-62
2022/05/21 13:33:01;;;;;;;7.93;1.40;;;17.80;99.90;;;;;;5093830;28;20091;-62
2022/05/21 13:35:37;;;;;;;5.47;1.70;;;17.70;99.90;;;;;;5111360;28;20065;-62